TAF and METAR

Could not understand the following METAR

EHSA 270255Z AUTO 23014KT 9999 ///////// 06/M01 Q1003 W06/H16
No TAF available for Euro Platform